Time;durP1;ratioP1;P1;durP2;ratioP2;P2;SDS_P1;SDS_P2;PMS_P1;PMS_P2;Temp;Humidity;BMP_temperature;BMP_pressure;BME280_temperature;BME280_humidity;BME280_pressure;Samples;Min_cycle;Max_cycle;Signal;HPM_P1;HPM_P2
2021/12/29 00:01:13;;;;;;;;;;;;;;;7.42;100.00;100060.84;4995180;28;19942;-80
2021/12/29 00:03:38;;;;;;;;;;;;;;;7.34;100.00;100070.81;4989350;28;19952;-77
2021/12/29 00:06:04;;;;;;;;;;;;;;;7.36;100.00;100075.03;5003562;28;20046;-76
2021/12/29 00:08:29;;;;;;;;;;;;;;;7.34;100.00;100076.88;4998185;28;20378;-78
2021/12/29 00:10:56;;;;;;;;;;;;;;;7.34;100.00;100089.09;4998854;28;20375;-79
2021/12/29 00:13:22;;;;;;;;;;;;;;;7.37;100.00;100094.19;5000104;28;19941;-80
2021/12/29 00:15:47;;;;;;;;;;;;;;;7.35;100.00;100093.41;5003080;28;20353;-79
2021/12/29 00:18:12;;;;;;;;;;;;;;;7.34;100.00;100105.63;5006524;28;20059;-80
2021/12/29 00:20:38;;;;;;;;;;;;;;;7.35;100.00;100107.31;5005196;28;20215;-79
2021/12/29 00:23:04;;;;;;;;;;;;;;;7.35;100.00;100116.94;5002440;28;20343;-76
2021/12/29 00:25:31;;;;;;;;;;;;;;;7.35;100.00;100115.16;5010007;28;20303;-77
2021/12/29 00:27:59;;;;;;;;;;;;;;;7.31;100.00;100128.44;5005711;28;19921;-80
2021/12/29 00:30:24;;;;;;;;;;;;;;;7.34;100.00;100123.06;5002939;28;20530;-79
2021/12/29 00:32:50;;;;;;;;;;;;;;;7.31;100.00;100136.28;4995742;28;19949;-79
2021/12/29 00:35:16;;;;;;;;;;;;;;;7.34;100.00;100129.13;4991378;28;20015;-79
2021/12/29 00:37:41;;;;;;;;;;;;;;;7.29;100.00;100141.56;5009315;28;20223;-79
2021/12/29 00:40:08;;;;;;;;;;;;;;;7.33;100.00;100137.88;5041804;28;19970;-79
2021/12/29 00:42:33;;;;;;;;;;;;;;;7.31;100.00;100152.81;5044940;28;19920;-77
2021/12/29 00:44:58;;;;;;;;;;;;;;;7.36;100.00;100155.22;5042421;28;19932;-75
2021/12/29 00:47:24;;;;;;;;;;;;;;;7.39;100.00;100173.34;5035155;28;19956;-79
2021/12/29 00:49:49;;;;;;;;;;;;;;;7.43;100.00;100160.13;5038143;28;19925;-79
2021/12/29 00:52:14;;;;;;;;;;;;;;;7.33;100.00;100174.47;5036784;28;19932;-74
2021/12/29 00:54:41;;;;;;;;;;;;;;;7.39;100.00;100170.75;5038841;28;19955;-78
2021/12/29 00:57:06;;;;;;;;;;;;;;;7.43;100.00;100178.41;5035414;28;19982;-77
2021/12/29 00:59:32;;;;;;;;;;;;;;;7.38;100.00;100187.38;5042747;28;20011;-77
2021/12/29 01:01:57;;;;;;;;;;;;;;;7.42;100.00;100188.91;5039848;28;20196;-78
2021/12/29 01:04:22;;;;;;;;;;;;;;;7.37;100.00;100196.13;5038402;28;19967;-78
2021/12/29 01:06:48;;;;;;;;;;;;;;;7.37;100.00;100204.78;5045349;28;20040;-80
2021/12/29 01:09:14;;;;;;;;;;;;;;;7.36;100.00;100210.09;5043396;28;19921;-81
2021/12/29 01:11:39;;;;;;;;;;;;;;;7.35;100.00;100214.47;5046917;28;20009;-80
2021/12/29 01:14:07;;;;;;;;;;;;;;;7.37;100.00;100227.47;5041982;28;20261;-79
2021/12/29 01:19:13;;;;;;;;;;;;;;;7.40;100.00;100237.78;5042171;28;19955;-79
2021/12/29 01:21:39;;;;;;;;;;;;;;;7.38;100.00;100237.84;5036613;28;19964;-81
2021/12/29 01:24:06;;;;;;;;;;;;;;;7.37;100.00;100248.38;5046439;28;19946;-79
2021/12/29 01:26:31;;;;;;;;;;;;;;;7.35;100.00;100252.81;5043326;28;19920;-80
2021/12/29 01:28:57;;;;;;;;;;;;;;;7.33;100.00;100245.03;5045117;28;20520;-73
2021/12/29 01:31:22;;;;;;;;;;;;;;;7.36;100.00;100244.06;5034385;28;19995;-72
2021/12/29 01:33:47;;;;;;;;;;;;;;;7.30;100.00;100253.03;5041537;28;19975;-70
2021/12/29 01:36:13;;;;;;;;;;;;;;;7.36;100.00;100255.34;5036053;28;20445;-72
2021/12/29 01:38:38;;;;;;;;;;;;;;;7.46;100.00;100250.59;5040601;28;20593;-72
2021/12/29 01:41:04;;;;;;;;;;;;;;;7.38;100.00;100260.53;5031730;28;19991;-72
2021/12/29 01:43:29;;;;;;;;;;;;;;;7.34;100.00;100265.03;5044351;28;20003;-72
2021/12/29 01:45:54;;;;;;;;;;;;;;;7.37;100.00;100272.75;5031438;28;20037;-72
2021/12/29 01:48:20;;;;;;;;;;;;;;;7.32;100.00;100271.22;5038924;28;20473;-71
2021/12/29 01:50:49;;;;;;;;;;;;;;;7.32;100.00;100266.88;5034673;28;20203;-72
2021/12/29 01:53:22;;;;;;;;;;;;;;;7.33;100.00;100280.78;5032934;28;19994;-69
2021/12/29 01:55:48;;;;;;;;;;;;;;;7.33;100.00;100283.38;5033343;28;19921;-70
2021/12/29 01:58:13;;;;;;;;;;;;;;;7.31;100.00;100293.06;5040754;28;19964;-70
2021/12/29 02:00:41;;;;;;;;;;;;;;;7.32;100.00;100293.00;5046142;28;20011;-71
2021/12/29 02:03:08;;;;;;;;;;;;;;;7.36;100.00;100297.16;5039370;28;19986;-71
2021/12/29 02:05:33;;;;;;;;;;;;;;;7.32;100.00;100292.13;5048875;28;20053;-70
2021/12/29 02:07:58;;;;;;;;;;;;;;;7.37;100.00;100298.03;5044163;28;20027;-73
2021/12/29 02:10:24;;;;;;;;;;;;;;;7.38;100.00;100291.91;5029845;28;19920;-71
2021/12/29 02:12:50;;;;;;;;;;;;;;;7.33;100.00;100299.91;5042376;28;19925;-72
2021/12/29 02:15:15;;;;;;;;;;;;;;;7.28;100.00;100304.50;5044618;28;19962;-72
2021/12/29 02:17:41;;;;;;;;;;;;;;;7.27;100.00;100300.19;5036745;28;19921;-72
2021/12/29 02:20:07;;;;;;;;;;;;;;;7.39;100.00;100304.03;5048507;28;19917;-71
2021/12/29 02:27:55;;;;;;;;;;;;;;;7.30;100.00;100309.63;5044168;28;20385;-72
2021/12/29 02:30:36;;;;;;;;;;;;;;;7.29;100.00;100314.03;5038806;28;20009;-72
2021/12/29 02:33:03;;;;;;;;;;;;;;;7.27;100.00;100314.09;5059174;28;19960;-71
2021/12/29 02:35:28;;;;;;;;;;;;;;;7.31;100.00;100319.19;5031652;28;20387;-72
2021/12/29 02:37:53;;;;;;;;;;;;;;;7.33;100.00;100312.97;5033430;28;19952;-72
2021/12/29 02:40:19;;;;;;;;;;;;;;;7.34;100.00;100317.28;5033642;28;20013;-70
2021/12/29 02:42:44;;;;;;;;;;;;;;;7.34;100.00;100316.44;5037134;28;19951;-71
2021/12/29 02:45:12;;;;;;;;;;;;;;;7.31;100.00;100316.56;5033462;28;20467;-70
2021/12/29 02:47:37;;;;;;;;;;;;;;;7.33;100.00;100317.34;5043258;28;20634;-69
2021/12/29 02:50:03;;;;;;;;;;;;;;;7.34;100.00;100306.84;5039948;28;20027;-72
2021/12/29 02:52:29;;;;;;;;;;;;;;;7.32;100.00;100313.91;5041523;28;19956;-72
2021/12/29 02:54:54;;;;;;;;;;;;;;;7.32;100.00;100324.38;5037820;28;19995;-72
2021/12/29 02:57:19;;;;;;;;;;;;;;;7.37;100.00;100329.41;5041821;28;19973;-71
2021/12/29 02:59:45;;;;;;;;;;;;;;;7.38;100.00;100341.56;5043670;28;19986;-72
2021/12/29 03:02:10;;;;;;;;;;;;;;;7.41;100.00;100334.44;5035902;28;19952;-72
2021/12/29 03:04:35;;;;;;;;;;;;;;;7.45;100.00;100342.13;5033942;28;20603;-71
2021/12/29 03:07:01;;;;;;;;;;;;;;;7.39;100.00;100353.69;5033552;28;20553;-70
2021/12/29 03:09:26;;;;;;;;;;;;;;;7.37;100.00;100365.97;5041337;28;20788;-70
2021/12/29 03:11:51;;;;;;;;;;;;;;;7.39;100.00;100369.34;5042054;28;19958;-73
2021/12/29 03:14:18;;;;;;;;;;;;;;;7.39;100.00;100364.13;5031678;28;20088;-70
2021/12/29 03:16:43;;;;;;;;;;;;;;;7.41;100.00;100380.59;5043575;28;20044;-74
2021/12/29 03:19:09;;;;;;;;;;;;;;;7.40;100.00;100384.13;5041950;28;20052;-71
2021/12/29 03:21:34;;;;;;;;;;;;;;;7.39;100.00;100392.88;5043030;28;19997;-70
2021/12/29 03:24:00;;;;;;;;;;;;;;;7.47;100.00;100395.19;5038290;28;19947;-74
2021/12/29 03:26:26;;;;;;;;;;;;;;;7.48;100.00;100408.22;5021093;28;20068;-73
2021/12/29 03:28:51;;;;;;;;;;;;;;;7.49;100.00;100415.16;5039669;28;19947;-76
2021/12/29 03:31:18;;;;;;;;;;;;;;;7.52;100.00;100422.00;5020309;28;20520;-75
2021/12/29 03:33:44;;;;;;;;;;;;;;;7.51;100.00;100423.75;5025551;28;20252;-70
2021/12/29 03:36:09;;;;;;;;;;;;;;;7.51;100.00;100426.38;5024783;28;19957;-72
2021/12/29 03:38:36;;;;;;;;;;;;;;;7.47;100.00;100419.56;5027197;28;20010;-73
2021/12/29 03:41:02;;;;;;;;;;;;;;;7.46;100.00;100417.88;5033650;28;19954;-74
2021/12/29 03:43:29;;;;;;;;;;;;;;;7.48;100.00;100423.91;5029387;28;20004;-73
2021/12/29 03:45:54;;;;;;;;;;;;;;;7.49;100.00;100443.03;5025567;28;19952;-76
2021/12/29 03:48:21;;;;;;;;;;;;;;;7.45;100.00;100437.06;5032112;28;20368;-75
2021/12/29 03:50:47;;;;;;;;;;;;;;;7.43;100.00;100437.16;5025195;28;20411;-71
2021/12/29 03:53:14;;;;;;;;;;;;;;;7.49;100.00;100446.50;5034775;28;19943;-70
2021/12/29 03:55:39;;;;;;;;;;;;;;;7.52;100.00;100445.53;5025025;28;19954;-69
2021/12/29 03:58:05;;;;;;;;;;;;;;;7.52;100.00;100450.75;5036565;28;20588;-70
2021/12/29 04:00:30;;;;;;;;;;;;;;;7.54;100.00;100444.53;5027007;28;19977;-68
2021/12/29 04:02:55;;;;;;;;;;;;;;;7.55;100.00;100448.03;5037438;28;19979;-71
2021/12/29 04:05:21;;;;;;;;;;;;;;;7.59;100.00;100444.34;5061467;28;21066;-71
2021/12/29 04:07:47;;;;;;;;;;;;;;;7.61;100.00;100441.69;5041339;28;19955;-76
2021/12/29 04:10:12;;;;;;;;;;;;;;;7.64;100.00;100444.16;5037174;28;20470;-72
2021/12/29 04:12:39;;;;;;;;;;;;;;;7.66;100.00;100439.72;5033915;28;19956;-72
2021/12/29 04:15:05;;;;;;;;;;;;;;;7.70;100.00;100441.31;5039011;28;20034;-71
2021/12/29 04:17:37;;;;;;;;;;;;;;;7.72;100.00;100447.31;5021103;28;20385;-70
2021/12/29 04:22:44;;;;;;;;;;;;;;;7.67;100.00;100444.88;5046880;28;19953;-75
2021/12/29 04:25:09;;;;;;;;;;;;;;;7.69;100.00;100448.28;5040848;28;20000;-76
2021/12/29 04:27:35;;;;;;;;;;;;;;;7.71;100.00;100454.31;5044536;28;19997;-75
2021/12/29 04:30:00;;;;;;;;;;;;;;;7.73;100.00;100462.09;5049759;28;20100;-75
2021/12/29 04:32:25;;;;;;;;;;;;;;;7.66;100.00;100471.94;5046589;28;19968;-74
2021/12/29 04:34:51;;;;;;;;;;;;;;;7.62;100.00;100482.59;5053193;28;19961;-75
2021/12/29 04:37:16;;;;;;;;;;;;;;;7.63;100.00;100479.06;5054502;28;20063;-75
2021/12/29 04:39:41;;;;;;;;;;;;;;;7.66;100.00;100484.19;5063885;28;20327;-74
2021/12/29 04:42:07;;;;;;;;;;;;;;;7.66;100.00;100495.47;5030043;28;20004;-70
2021/12/29 04:44:32;;;;;;;;;;;;;;;7.67;100.00;100497.19;5036507;28;19954;-73
2021/12/29 04:46:58;;;;;;;;;;;;;;;7.63;100.00;100489.53;5045904;28;19947;-71
2021/12/29 04:49:27;;;;;;;;;;;;;;;7.64;100.00;100499.94;5041829;28;19954;-71
2021/12/29 04:54:34;;;;;;;;;;;;;;;7.52;100.00;100505.66;5041905;28;19954;-72
2021/12/29 04:57:00;;;;;;;;;;;;;;;7.57;100.00;100508.91;5048629;28;19953;-72
2021/12/29 04:59:26;;;;;;;;;;;;;;;7.56;100.00;100507.22;5041325;28;20376;-72
2021/12/29 05:01:52;;;;;;;;;;;;;;;7.52;100.00;100514.34;5046217;28;20333;-72
2021/12/29 05:09:40;;;;;;;;;;;;;;;7.52;100.00;100519.56;5036394;28;20055;-78
2021/12/29 05:12:05;;;;;;;;;;;;;;;7.52;100.00;100521.34;5027845;28;20457;-72
2021/12/29 05:14:31;;;;;;;;;;;;;;;7.53;100.00;100516.03;5050513;28;19947;-71
2021/12/29 05:16:56;;;;;;;;;;;;;;;7.53;100.00;100510.81;5040282;28;20523;-72
2021/12/29 05:19:22;;;;;;;;;;;;;;;7.52;100.00;100522.16;5049035;28;19999;-72
2021/12/29 05:21:47;;;;;;;;;;;;;;;7.48;100.00;100528.44;5041637;28;19925;-70
2021/12/29 05:24:12;;;;;;;;;;;;;;;7.52;100.00;100531.78;5044641;28;19954;-71
2021/12/29 05:26:38;;;;;;;;;;;;;;;7.50;100.00;100533.59;5036692;28;20279;-71
2021/12/29 05:29:04;;;;;;;;;;;;;;;7.50;100.00;100541.44;5029982;28;20054;-71
2021/12/29 05:31:30;;;;;;;;;;;;;;;7.51;100.00;100538.75;5043744;28;20421;-74
2021/12/29 05:33:55;;;;;;;;;;;;;;;7.51;100.00;100548.38;5043308;28;19958;-74
2021/12/29 05:36:21;;;;;;;;;;;;;;;7.52;100.00;100552.72;5042182;28;19959;-71
2021/12/29 05:38:46;;;;;;;;;;;;;;;7.53;100.00;100552.63;5039602;28;20092;-70
2021/12/29 05:41:11;;;;;;;;;;;;;;;7.53;100.00;100544.78;5038302;28;19947;-72
2021/12/29 05:43:36;;;;;;;;;;;;;;;7.52;100.00;100550.09;5042763;28;20050;-78
2021/12/29 05:46:02;;;;;;;;;;;;;;;7.51;100.00;100538.75;5040530;28;20433;-79
2021/12/29 05:48:27;;;;;;;;;;;;;;;7.53;100.00;100538.72;5038542;28;19952;-77
2021/12/29 05:50:52;;;;;;;;;;;;;;;7.54;100.00;100536.03;5040604;28;19948;-78
2021/12/29 05:53:18;;;;;;;;;;;;;;;7.62;100.00;100550.56;5044474;28;19954;-78
2021/12/29 05:55:43;;;;;;;;;;;;;;;7.49;100.00;100543.22;5049462;28;19948;-77
2021/12/29 05:58:09;;;;;;;;;;;;;;;7.52;100.00;100550.94;5045103;28;19957;-77
2021/12/29 06:00:37;;;;;;;;;;;;;;;7.54;100.00;100549.13;5047924;28;20032;-78
2021/12/29 06:03:02;;;;;;;;;;;;;;;7.52;100.00;100550.09;5042519;28;19951;-78
2021/12/29 06:05:28;;;;;;;;;;;;;;;7.54;100.00;100553.50;5043321;28;20322;-78
2021/12/29 06:07:53;;;;;;;;;;;;;;;7.50;100.00;100555.34;5044996;28;20003;-71
2021/12/29 06:10:18;;;;;;;;;;;;;;;7.50;100.00;100559.75;5043267;28;20028;-71
2021/12/29 06:12:44;;;;;;;;;;;;;;;7.47;100.00;100565.09;5039193;28;19966;-72
2021/12/29 06:15:09;;;;;;;;;;;;;;;7.52;100.00;100565.78;5040702;28;20000;-72
2021/12/29 06:17:35;;;;;;;;;;;;;;;7.47;100.00;100568.56;5043332;28;20456;-77
2021/12/29 06:20:01;;;;;;;;;;;;;;;7.53;100.00;100573.56;5048036;28;19921;-72
2021/12/29 06:22:26;;;;;;;;;;;;;;;7.51;100.00;100564.06;5006212;28;20043;-72
2021/12/29 06:24:52;;;;;;;;;;;;;;;7.46;100.00;100560.75;5044744;28;19954;-71
2021/12/29 06:27:32;;;;;;;;;;;;;;;7.45;100.00;100559.06;5062636;28;20416;-70
2021/12/29 06:29:58;;;;;;;;;;;;;;;7.46;100.00;100560.75;5039745;28;19959;-75
2021/12/29 06:32:23;;;;;;;;;;;;;;;7.45;100.00;100570.38;5028007;28;19999;-74
2021/12/29 06:34:48;;;;;;;;;;;;;;;7.45;100.00;100570.38;5015243;28;20322;-70
2021/12/29 06:37:14;;;;;;;;;;;;;;;7.41;100.00;100569.66;5041402;28;20044;-70
2021/12/29 06:39:39;;;;;;;;;;;;;;;7.42;100.00;100575.72;5047209;28;20527;-77
2021/12/29 06:42:05;;;;;;;;;;;;;;;7.43;100.00;100574.81;5040892;28;19965;-79
2021/12/29 06:44:30;;;;;;;;;;;;;;;7.46;100.00;100581.69;5054919;28;19948;-79
2021/12/29 06:46:55;;;;;;;;;;;;;;;7.38;100.00;100589.84;5038579;28;20079;-77
2021/12/29 06:49:21;;;;;;;;;;;;;;;7.37;100.00;100599.41;5034595;28;19948;-76
2021/12/29 06:51:47;;;;;;;;;;;;;;;7.36;100.00;100602.09;5058609;28;19950;-73
2021/12/29 06:54:12;;;;;;;;;;;;;;;7.37;100.00;100603.81;5042606;28;20045;-73
2021/12/29 06:56:38;;;;;;;;;;;;;;;7.33;100.00;100602.22;5038608;28;20318;-72
2021/12/29 06:59:03;;;;;;;;;;;;;;;7.30;100.00;100607.53;5043646;28;19965;-72
2021/12/29 07:01:28;;;;;;;;;;;;;;;7.30;100.00;100603.19;5033829;28;19995;-76
2021/12/29 07:03:53;;;;;;;;;;;;;;;7.28;100.00;100602.38;5031939;28;20482;-77
2021/12/29 07:06:19;;;;;;;;;;;;;;;7.28;100.00;100605.00;5038210;28;19959;-77
2021/12/29 07:08:44;;;;;;;;;;;;;;;7.26;100.00;100614.66;5043509;28;20313;-77
2021/12/29 07:11:10;;;;;;;;;;;;;;;7.25;100.00;100611.19;5037754;28;19957;-77
2021/12/29 07:13:35;;;;;;;;;;;;;;;7.25;100.00;100611.19;5040991;28;20338;-74
2021/12/29 07:16:00;;;;;;;;;;;;;;;7.25;100.00;100621.66;5039281;28;19947;-74
2021/12/29 07:18:26;;;;;;;;;;;;;;;7.25;100.00;100628.63;5044471;28;20014;-75
2021/12/29 07:20:51;;;;;;;;;;;;;;;7.25;100.00;100641.69;5035798;28;20407;-76
2021/12/29 07:23:17;;;;;;;;;;;;;;;7.21;100.00;100638.31;5038137;28;20482;-74
2021/12/29 07:25:42;;;;;;;;;;;;;;;7.17;100.00;100651.56;5018148;28;19954;-75
2021/12/29 07:28:07;;;;;;;;;;;;;;;7.15;100.00;100649.00;5038520;28;19955;-70
2021/12/29 07:30:32;;;;;;;;;;;;;;;7.15;100.00;100649.00;5040942;28;20084;-74
2021/12/29 07:32:58;;;;;;;;;;;;;;;7.17;100.00;100649.78;5049129;28;19924;-75
2021/12/29 07:35:23;;;;;;;;;;;;;;;7.15;100.00;100649.00;5037961;28;19956;-74
2021/12/29 07:37:49;;;;;;;;;;;;;;;7.12;100.00;100644.72;5039040;28;20435;-77
2021/12/29 07:40:14;;;;;;;;;;;;;;;7.12;100.00;100652.56;5034265;28;19951;-75
2021/12/29 07:42:41;;;;;;;;;;;;;;;7.14;100.00;100647.31;5039405;28;19959;-75
2021/12/29 07:45:08;;;;;;;;;;;;;;;7.14;100.00;100649.06;5043708;28;19925;-76
2021/12/29 07:47:34;;;;;;;;;;;;;;;7.18;100.00;100659.34;5047541;28;19950;-75
2021/12/29 07:49:59;;;;;;;;;;;;;;;7.17;100.00;100664.63;5043427;28;19970;-76
2021/12/29 07:52:24;;;;;;;;;;;;;;;7.14;100.00;100655.16;5031169;28;19926;-74
2021/12/29 07:54:49;;;;;;;;;;;;;;;7.14;100.00;100649.91;5027143;28;19956;-74
2021/12/29 07:57:15;;;;;;;;;;;;;;;7.13;100.00;100653.44;5031510;28;20041;-73
2021/12/29 07:59:40;;;;;;;;;;;;;;;7.13;100.00;100648.22;5037639;28;19953;-73
2021/12/29 08:02:10;;;;;;;;;;;;;;;7.12;100.00;100643.88;5032590;28;20070;-76
2021/12/29 08:04:35;;;;;;;;;;;;;;;7.11;100.00;100636.97;5027108;28;20086;-72
2021/12/29 08:07:00;;;;;;;;;;;;;;;7.11;100.00;100631.72;5016980;28;19955;-70
2021/12/29 08:09:26;;;;;;;;;;;;;;;7.13;100.00;100635.16;5007400;28;20043;-72
2021/12/29 08:11:51;;;;;;;;;;;;;;;7.12;100.00;100630.81;5016040;28;19953;-72
2021/12/29 08:14:18;;;;;;;;;;;;;;;7.13;100.00;100629.94;5012889;28;19959;-71
2021/12/29 08:16:44;;;;;;;;;;;;;;;7.12;100.00;100639.50;5015768;28;19957;-70
2021/12/29 08:19:09;;;;;;;;;;;;;;;7.13;100.00;100640.38;5010271;28;19929;-71
2021/12/29 08:21:35;;;;;;;;;;;;;;;7.11;100.00;100640.41;5045066;28;20000;-72
2021/12/29 08:24:00;;;;;;;;;;;;;;;7.11;100.00;100658.69;5015885;28;19983;-71
2021/12/29 08:26:25;;;;;;;;;;;;;;;7.12;100.00;100657.78;5029776;28;19955;-71
2021/12/29 08:28:51;;;;;;;;;;;;;;;7.11;100.00;100657.84;5034200;28;20410;-71
2021/12/29 08:31:16;;;;;;;;;;;;;;;7.11;100.00;100661.31;5040879;28;20718;-71
2021/12/29 08:33:41;;;;;;;;;;;;;;;7.14;100.00;100659.50;5031103;28;20043;-71
2021/12/29 08:36:07;;;;;;;;;;;;;;;7.20;100.00;100661.91;5025532;28;19975;-71
2021/12/29 08:38:33;;;;;;;;;;;;;;;7.18;100.00;100661.94;5021377;28;19963;-71
2021/12/29 08:40:58;;;;;;;;;;;;;;;7.21;100.00;100669.69;5034764;28;20012;-71
2021/12/29 08:43:23;;;;;;;;;;;;;;;7.23;100.00;100675.72;5030837;28;20431;-71
2021/12/29 08:45:49;;;;;;;;;;;;;;;7.26;100.00;100667.78;5044777;28;19998;-70
2021/12/29 08:48:14;;;;;;;;;;;;;;;7.28;100.00;100672.94;5033708;28;20335;-71
2021/12/29 08:50:40;;;;;;;;;;;;;;;7.26;100.00;100673.00;5043837;28;19985;-72
2021/12/29 08:53:06;;;;;;;;;;;;;;;7.24;100.00;100661.75;5030896;28;20049;-71
2021/12/29 08:55:32;;;;;;;;;;;;;;;7.28;99.86;100650.25;5043245;28;19947;-71
2021/12/29 08:57:57;;;;;;;;;;;;;;;7.32;99.66;100650.16;5044655;28;20490;-71
2021/12/29 09:00:22;;;;;;;;;;;;;;;7.37;99.95;100645.63;5036629;28;20002;-71
2021/12/29 09:02:49;;;;;;;;;;;;;;;7.38;99.62;100650.78;5039473;28;20396;-72
2021/12/29 09:05:16;;;;;;;;;;;;;;;7.50;99.68;100646.84;5040608;28;19965;-71
2021/12/29 09:07:42;;;;;;;;;;;;;;;7.46;99.82;100642.66;5032594;28;20015;-71
2021/12/29 09:10:08;;;;;;;;;;;;;;;7.48;99.80;100645.22;5030310;28;19953;-71
2021/12/29 09:12:33;;;;;;;;;;;;;;;7.48;99.88;100651.31;5036463;28;20060;-70
2021/12/29 09:14:58;;;;;;;;;;;;;;;7.46;100.00;100653.13;5044896;28;19956;-71
2021/12/29 09:17:24;;;;;;;;;;;;;;;7.49;100.00;100649.53;5042135;28;19949;-70
2021/12/29 09:19:49;;;;;;;;;;;;;;;7.49;100.00;100646.91;5041078;28;19953;-71
2021/12/29 09:22:15;;;;;;;;;;;;;;;7.49;100.00;100645.19;5042973;28;20057;-70
2021/12/29 09:24:42;;;;;;;;;;;;;;;7.54;100.00;100638.00;5039094;28;20285;-71
2021/12/29 09:27:07;;;;;;;;;;;;;;;7.61;100.00;100636.00;5051359;28;19954;-72
2021/12/29 09:29:34;;;;;;;;;;;;;;;7.71;100.00;100623.44;5044702;28;19978;-72
2021/12/29 09:31:59;;;;;;;;;;;;;;;7.76;100.00;100625.88;5036260;28;19991;-71
2021/12/29 09:34:24;;;;;;;;;;;;;;;7.81;100.00;100629.16;5031099;28;19984;-71
2021/12/29 09:36:50;;;;;;;;;;;;;;;7.79;100.00;100641.44;5040914;28;20007;-70
2021/12/29 09:39:15;;;;;;;;;;;;;;;7.72;100.00;100646.91;5036824;28;19963;-71
2021/12/29 09:41:40;;;;;;;;;;;;;;;7.68;100.00;100654.94;5052873;28;20005;-71
2021/12/29 09:44:09;;;;;;;;;;;;;;;7.69;100.00;100659.25;5035343;28;19961;-72
2021/12/29 09:46:35;;;;;;;;;;;;;;;7.71;100.00;100650.44;5043894;28;19956;-71
2021/12/29 09:49:01;;;;;;;;;;;;;;;7.74;100.00;100645.09;5037296;28;19954;-71
2021/12/29 09:51:26;;;;;;;;;;;;;;;7.75;100.00;100645.94;5048731;28;20042;-71
2021/12/29 09:53:51;;;;;;;;;;;;;;;7.74;100.00;100641.63;5048151;28;20623;-71
2021/12/29 09:56:16;;;;;;;;;;;;;;;7.73;100.00;100630.31;5043264;28;19953;-70
2021/12/29 09:58:42;;;;;;;;;;;;;;;7.69;100.00;100620.88;5040914;28;19983;-72
2021/12/29 10:01:08;;;;;;;;;;;;;;;7.80;100.00;100610.00;5057279;28;19954;-75
2021/12/29 10:03:34;;;;;;;;;;;;;;;7.84;100.00;100611.56;5046073;28;19953;-77
2021/12/29 10:06:00;;;;;;;;;;;;;;;7.92;100.00;100615.69;5041948;28;20738;-75
2021/12/29 10:08:27;;;;;;;;;;;;;;;7.93;100.00;100618.22;5044695;28;20975;-76
2021/12/29 10:10:54;;;;;;;;;;;;;;;8.06;100.00;100605.50;5042311;28;20476;-76
2021/12/29 10:13:20;;;;;;;;;;;;;;;8.08;100.00;100605.44;5042215;28;19950;-76
2021/12/29 10:15:46;;;;;;;;;;;;;;;8.20;99.99;100597.94;5044350;28;20487;-76
2021/12/29 10:18:13;;;;;;;;;;;;;;;8.30;98.87;100605.41;5041158;28;20060;-76
2021/12/29 10:20:53;;;;;;;;;;;;;;;8.24;98.16;100595.22;5042146;28;19990;-75
2021/12/29 10:23:21;;;;;;;;;;;;;;;8.29;98.54;100595.84;5041124;28;20013;-76
2021/12/29 10:25:47;;;;;;;;;;;;;;;8.23;98.79;100599.56;5042681;28;19964;-76
2021/12/29 10:28:27;;;;;;;;;;;;;;;8.16;98.21;100598.97;5037161;28;19957;-75
2021/12/29 10:30:54;;;;;;;;;;;;;;;8.13;98.17;100591.28;5045593;28;20310;-77
2021/12/29 10:33:19;;;;;;;;;;;;;;;8.12;98.04;100596.53;5032311;28;19984;-75
2021/12/29 10:35:44;;;;;;;;;;;;;;;8.10;97.53;100591.38;5041158;28;20405;-75
2021/12/29 10:38:25;;;;;;;;;;;;;;;8.16;97.60;100570.19;5038203;28;19966;-75
2021/12/29 10:40:50;;;;;;;;;;;;;;;8.18;97.76;100570.16;5010648;28;19999;-77
2021/12/29 10:43:16;;;;;;;;;;;;;;;8.23;97.92;100567.34;5001355;28;19989;-75
2021/12/29 10:45:43;;;;;;;;;;;;;;;8.28;98.07;100573.22;5011331;28;19950;-71
2021/12/29 10:48:24;;;;;;;;;;;;;;;8.36;98.08;100577.22;5014982;28;19956;-72
2021/12/29 10:51:04;;;;;;;;;;;;;;;8.46;96.83;100575.06;5008295;28;19958;-73
2021/12/29 10:53:31;;;;;;;;;;;;;;;8.38;96.90;100582.38;4992958;28;20004;-73
2021/12/29 10:55:56;;;;;;;;;;;;;;;8.40;97.32;100598.88;4998235;28;19952;-71
2021/12/29 10:58:23;;;;;;;;;;;;;;;8.40;97.04;100604.13;5005276;28;20441;-77
2021/12/29 11:00:56;;;;;;;;;;;;;;;8.23;97.43;100611.81;5002468;28;19951;-77
2021/12/29 11:03:22;;;;;;;;;;;;;;;8.18;97.72;100614.63;4995696;28;19961;-76
2021/12/29 11:06:03;;;;;;;;;;;;;;;8.12;97.68;100610.50;5001373;28;20383;-77
2021/12/29 11:08:30;;;;;;;;;;;;;;;8.04;98.18;100610.78;5000885;28;19949;-75
2021/12/29 11:11:00;;;;;;;;;;;;;;;8.04;98.64;100602.09;4992939;28;20020;-76
2021/12/29 11:13:26;;;;;;;;;;;;;;;7.99;98.76;100593.56;5001715;28;19965;-76
2021/12/29 11:15:53;;;;;;;;;;;;;;;7.98;98.63;100595.34;5010041;28;19947;-76
2021/12/29 11:18:18;;;;;;;;;;;;;;;8.01;98.90;100589.97;5004698;28;20074;-78
2021/12/29 11:20:43;;;;;;;;;;;;;;;7.94;98.86;100577.22;5001499;28;19949;-76
2021/12/29 11:23:10;;;;;;;;;;;;;;;7.99;98.88;100583.13;5015628;28;19955;-76
2021/12/29 11:25:37;;;;;;;;;;;;;;;8.00;98.19;100566.50;4992796;28;20005;-77
2021/12/29 11:28:03;;;;;;;;;;;;;;;8.01;98.55;100555.13;5014059;28;20492;-75
2021/12/29 11:30:29;;;;;;;;;;;;;;;8.07;98.33;100556.66;5009672;28;19960;-75
2021/12/29 11:33:03;;;;;;;;;;;;;;;8.12;97.78;100554.69;5004850;28;19951;-72
2021/12/29 11:35:28;;;;;;;;;;;;;;;8.19;96.93;100564.00;5001179;28;19950;-72
2021/12/29 11:37:55;;;;;;;;;;;;;;;8.24;96.91;100558.56;4994472;28;19970;-72
2021/12/29 11:40:35;;;;;;;;;;;;;;;8.20;97.19;100555.22;5000989;28;20464;-77
2021/12/29 11:43:01;;;;;;;;;;;;;;;8.17;97.03;100558.81;5002775;28;19957;-71
2021/12/29 11:45:26;;;;;;;;;;;;;;;8.16;97.36;100546.63;5004594;28;19959;-72
2021/12/29 11:47:52;;;;;;;;;;;;;;;8.27;96.34;100545.38;5006139;28;20486;-72
2021/12/29 11:50:21;;;;;;;;;;;;;;;8.26;95.79;100541.03;4999632;28;19963;-72
2021/12/29 11:53:01;;;;;;;;;;;;;;;8.40;94.85;100522.97;4980390;28;20037;-71
2021/12/29 11:55:30;;;;;;;;;;;;;;;8.28;95.15;100537.44;5007069;28;19960;-71
2021/12/29 11:57:55;;;;;;;;;;;;;;;8.16;95.59;100545.78;4996986;28;19965;-75
2021/12/29 12:00:22;;;;;;;;;;;;;;;8.15;95.41;100550.19;5010491;28;19952;-75
2021/12/29 12:02:49;;;;;;;;;;;;;;;8.15;95.54;100539.72;5015966;28;19968;-76
2021/12/29 12:05:29;;;;;;;;;;;;;;;8.23;94.66;100531.53;5002435;28;19959;-76
2021/12/29 12:08:04;;;;;;;;;;;;;;;8.38;93.52;100505.63;5002130;28;19986;-72
2021/12/29 12:10:34;;;;;;;;;;;;;;;8.25;94.72;100510.56;5002268;28;19949;-72
2021/12/29 12:13:02;;;;;;;;;;;;;;;8.23;94.93;100507.97;4997596;28;19962;-77
2021/12/29 12:15:29;;;;;;;;;;;;;;;8.21;95.29;100512.44;4999326;28;20469;-77
2021/12/29 12:17:55;;;;;;;;;;;;;;;8.35;94.41;100511.84;4994747;28;20010;-77
2021/12/29 12:20:21;;;;;;;;;;;;;;;8.29;95.11;100510.34;5000841;28;20013;-76
2021/12/29 12:22:48;;;;;;;;;;;;;;;8.10;95.93;100502.41;5007504;28;19951;-71
2021/12/29 12:25:17;;;;;;;;;;;;;;;8.25;95.58;100497.47;4997956;28;19963;-72
2021/12/29 12:27:43;;;;;;;;;;;;;;;8.24;95.04;100487.91;5012244;28;19970;-71
2021/12/29 12:30:24;;;;;;;;;;;;;;;8.14;96.05;100498.78;4997825;28;19957;-76
2021/12/29 12:32:49;;;;;;;;;;;;;;;8.12;96.14;100495.38;5001890;28;19958;-72
2021/12/29 12:35:27;;;;;;;;;;;;;;;8.11;96.01;100504.13;5001708;28;19958;-72
2021/12/29 12:37:52;;;;;;;;;;;;;;;8.05;96.55;100497.38;5004086;28;20002;-75
2021/12/29 12:40:32;;;;;;;;;;;;;;;8.01;96.88;100510.66;5016703;28;20400;-71
2021/12/29 12:42:58;;;;;;;;;;;;;;;7.95;97.23;100513.50;5018557;28;20339;-72
2021/12/29 12:45:23;;;;;;;;;;;;;;;7.92;97.18;100487.50;5016484;28;19955;-72
2021/12/29 12:47:49;;;;;;;;;;;;;;;7.87;97.04;100467.59;5014444;28;19944;-71
2021/12/29 12:50:30;;;;;;;;;;;;;;;7.97;96.48;100468.09;5029336;28;19917;-72
2021/12/29 12:52:56;;;;;;;;;;;;;;;8.01;96.34;100463.56;5032825;28;19957;-72